createdAt,value
2017-08-25T00:00:25.105Z,3.43
2017-08-25T00:02:54.006Z,2.77
2017-08-25T00:05:22.374Z,3.33
2017-08-25T00:07:51.646Z,3.00
2017-08-25T00:10:19.980Z,3.00
2017-08-25T00:12:48.328Z,2.70
2017-08-25T00:15:16.793Z,3.07
2017-08-25T00:17:45.136Z,2.70
2017-08-25T00:20:13.592Z,2.67
2017-08-25T00:22:41.950Z,3.97
2017-08-25T00:25:10.540Z,2.33
2017-08-25T00:27:38.953Z,2.80
2017-08-25T00:30:07.345Z,3.27
2017-08-25T00:32:35.747Z,2.60
2017-08-25T00:35:04.124Z,2.47
2017-08-25T00:37:32.453Z,2.70
2017-08-25T00:40:01.152Z,2.30
2017-08-25T00:42:29.486Z,2.37
2017-08-25T00:44:57.848Z,2.43
2017-08-25T00:47:26.201Z,2.67
2017-08-25T00:49:54.506Z,2.93
2017-08-25T00:52:22.931Z,2.70
2017-08-25T00:54:51.272Z,3.30
2017-08-25T00:57:19.639Z,2.90
2017-08-25T00:59:48.648Z,2.97
2017-08-25T01:02:17.147Z,3.50
2017-08-25T01:04:45.554Z,3.13
2017-08-25T01:07:13.915Z,2.77
2017-08-25T01:09:42.822Z,3.17
2017-08-25T01:12:11.902Z,2.90
2017-08-25T01:14:40.284Z,2.90
2017-08-25T01:17:09.021Z,2.70
2017-08-25T01:19:37.499Z,2.47
2017-08-25T01:22:05.906Z,2.63
2017-08-25T01:24:34.568Z,2.90
2017-08-25T01:27:03.041Z,2.93
2017-08-25T01:29:31.461Z,2.47
2017-08-25T01:31:59.866Z,3.00
2017-08-25T01:34:28.183Z,2.83
2017-08-25T01:36:56.702Z,3.10
2017-08-25T01:39:25.013Z,3.30
2017-08-25T01:41:53.364Z,3.10
2017-08-25T01:44:21.749Z,3.20
2017-08-25T01:46:50.393Z,2.83
2017-08-25T01:49:18.718Z,2.83
2017-08-25T01:51:47.051Z,3.60
2017-08-25T01:54:15.409Z,3.20
2017-08-25T01:56:43.741Z,2.97
2017-08-25T01:59:12.242Z,2.97
2017-08-25T02:01:40.618Z,2.70
2017-08-25T02:04:09.034Z,3.13
2017-08-25T02:06:37.623Z,2.93
2017-08-25T02:09:06.108Z,2.70
2017-08-25T02:11:34.441Z,3.10
2017-08-25T02:14:03.053Z,3.10
2017-08-25T02:16:31.474Z,2.60
2017-08-25T02:18:59.883Z,3.03
2017-08-25T02:24:26.616Z,3.33
2017-08-25T02:26:54.969Z,3.23
2017-08-25T02:29:23.375Z,3.63
2017-08-25T02:31:51.875Z,3.07
2017-08-25T02:34:20.278Z,3.20
2017-08-25T02:36:48.777Z,3.00
2017-08-25T02:39:17.240Z,2.97
2017-08-25T02:41:45.664Z,3.73
2017-08-25T02:44:14.209Z,3.37
2017-08-25T02:46:42.602Z,4.33
2017-08-25T02:49:11.013Z,3.23
2017-08-25T02:51:39.344Z,3.10
2017-08-25T02:54:07.672Z,3.13
2017-08-25T02:56:36.021Z,3.93
2017-08-25T02:59:04.522Z,2.57
2017-08-25T03:01:32.878Z,3.50
2017-08-25T03:04:01.296Z,2.57
2017-08-25T03:06:30.190Z,2.53
2017-08-25T03:08:58.528Z,3.73
2017-08-25T03:11:26.867Z,3.10
2017-08-25T03:13:55.312Z,2.97
2017-08-25T03:16:23.660Z,3.00
2017-08-25T03:18:52.314Z,3.50
2017-08-25T03:21:20.750Z,3.20
2017-08-25T03:23:49.120Z,3.57
2017-08-25T03:26:17.711Z,3.47
2017-08-25T03:28:46.259Z,3.40
2017-08-25T03:31:14.769Z,3.57
2017-08-25T03:33:43.149Z,3.90
2017-08-25T03:36:11.889Z,3.93
2017-08-25T03:38:41.540Z,4.30
2017-08-25T03:41:09.942Z,3.70
2017-08-25T03:43:38.370Z,3.50
2017-08-25T03:46:06.720Z,3.40
2017-08-25T03:48:35.205Z,4.27
2017-08-25T03:51:03.907Z,3.43
2017-08-25T03:53:32.382Z,3.63
2017-08-25T03:56:00.758Z,3.47
2017-08-25T03:58:29.126Z,3.43
2017-08-25T04:00:57.560Z,3.53
2017-08-25T04:03:26.089Z,4.00
2017-08-25T04:05:54.595Z,2.90
2017-08-25T04:08:22.957Z,3.23
2017-08-25T04:10:51.706Z,4.10
2017-08-25T04:13:20.389Z,3.47
2017-08-25T04:15:48.777Z,3.37
2017-08-25T04:18:17.233Z,3.80
2017-08-25T04:20:45.630Z,3.50
2017-08-25T04:23:14.137Z,3.73
2017-08-25T04:25:42.810Z,3.40
2017-08-25T04:28:11.379Z,3.50
2017-08-25T04:30:39.805Z,3.20
2017-08-25T04:33:08.695Z,3.83
2017-08-25T04:35:37.669Z,4.53
2017-08-25T04:38:06.206Z,3.57
2017-08-25T04:40:34.752Z,3.67
2017-08-25T04:43:03.141Z,4.20
2017-08-25T04:45:31.928Z,4.47
2017-08-25T04:48:00.383Z,3.70
2017-08-25T04:50:28.877Z,4.37
2017-08-25T04:52:57.376Z,3.63
2017-08-25T04:55:25.817Z,3.80
2017-08-25T04:57:54.421Z,3.50
2017-08-25T05:00:22.880Z,4.43
2017-08-25T05:02:51.328Z,3.67
2017-08-25T05:05:21.063Z,4.17
2017-08-25T05:07:49.497Z,3.50
2017-08-25T05:10:18.083Z,3.40
2017-08-25T05:12:46.883Z,3.60
2017-08-25T05:15:15.395Z,3.90
2017-08-25T05:17:44.003Z,4.23
2017-08-25T05:20:12.576Z,3.37
2017-08-25T05:22:41.034Z,3.73
2017-08-25T05:25:09.934Z,3.40
2017-08-25T05:27:38.374Z,3.60
2017-08-25T05:30:08.894Z,4.27
2017-08-25T05:32:37.688Z,4.20
2017-08-25T05:35:06.316Z,3.10
2017-08-25T05:37:34.731Z,3.93
2017-08-25T05:40:03.191Z,3.77
2017-08-25T05:42:31.537Z,3.80
2017-08-25T05:45:00.058Z,3.97
2017-08-25T05:47:28.601Z,3.57
2017-08-25T05:49:56.925Z,4.17
2017-08-25T05:52:25.311Z,3.20
2017-08-25T05:54:54.080Z,3.80
2017-08-25T05:57:22.526Z,3.80
2017-08-25T05:59:51.229Z,3.90
2017-08-25T06:02:20.024Z,3.30
2017-08-25T06:04:48.536Z,3.50
2017-08-25T06:07:17.032Z,3.53
2017-08-25T06:09:45.518Z,3.93
2017-08-25T06:12:14.427Z,2.97
2017-08-25T06:14:43.092Z,3.80
2017-08-25T06:17:11.866Z,3.87
2017-08-25T06:19:41.055Z,3.70
2017-08-25T06:22:11.866Z,3.57
2017-08-25T06:24:42.009Z,3.20
2017-08-25T06:27:15.939Z,4.03
2017-08-25T06:29:44.719Z,4.07
2017-08-25T06:34:51.804Z,4.10
2017-08-25T06:37:20.636Z,3.80
2017-08-25T06:39:49.080Z,3.70
2017-08-25T06:42:17.649Z,4.87
2017-08-25T06:44:48.779Z,3.90
2017-08-25T06:49:49.898Z,3.30
2017-08-25T06:52:20.758Z,3.57
2017-08-25T06:54:49.835Z,3.70
2017-08-25T06:59:51.108Z,3.47
2017-08-25T07:02:20.873Z,3.83
2017-08-25T07:04:50.766Z,3.53
2017-08-25T07:07:19.504Z,4.50
2017-08-25T07:14:53.875Z,2.80
2017-08-25T07:17:22.638Z,3.30
2017-08-25T07:22:23.290Z,3.80
2017-08-25T07:24:51.727Z,3.80
2017-08-25T07:27:20.358Z,3.40
2017-08-25T07:34:55.118Z,4.53
2017-08-25T07:37:24.009Z,3.50
2017-08-25T07:39:52.448Z,3.30
2017-08-25T07:42:21.978Z,3.20
2017-08-25T07:44:51.159Z,3.20
2017-08-25T07:47:20.246Z,3.30
2017-08-25T07:49:49.130Z,4.37
2017-08-25T07:52:18.845Z,3.13
2017-08-25T07:54:47.864Z,3.50
2017-08-25T07:57:17.146Z,3.00
2017-08-25T07:59:45.970Z,3.33
2017-08-25T08:02:18.930Z,3.10
2017-08-25T08:04:47.689Z,3.20
2017-08-25T08:07:16.315Z,2.77
2017-08-25T08:12:17.739Z,2.80
2017-08-25T08:14:46.359Z,2.80
2017-08-25T08:17:15.374Z,3.37
2017-08-25T08:19:44.180Z,3.23
2017-08-25T08:22:13.370Z,2.80
2017-08-25T08:24:45.503Z,2.40
2017-08-25T08:27:15.941Z,2.47
2017-08-25T08:29:44.447Z,2.87
2017-08-25T08:32:12.927Z,2.70
2017-08-25T08:34:41.890Z,2.43
2017-08-25T08:39:44.952Z,2.43
2017-08-25T08:47:27.371Z,3.10
2017-08-25T09:05:24.132Z,2.60
2017-08-25T09:12:59.344Z,3.73
2017-08-25T09:15:42.571Z,3.40
2017-08-25T09:18:13.025Z,2.63
2017-08-25T09:20:41.745Z,3.50
2017-08-25T09:23:10.536Z,3.13
2017-08-25T09:25:39.619Z,3.10
2017-08-25T09:28:08.158Z,2.90
2017-08-25T09:35:42.731Z,13.80
2017-08-25T09:38:11.430Z,4.50
2017-08-25T09:40:41.444Z,2.70
2017-08-25T09:43:10.750Z,3.13
2017-08-25T09:45:41.366Z,3.13
2017-08-25T09:48:10.500Z,2.70
2017-08-25T09:53:52.056Z,3.00
2017-08-25T09:56:21.082Z,4.00
2017-08-25T09:58:49.713Z,3.70
2017-08-25T10:01:18.252Z,3.67
2017-08-25T10:03:47.194Z,3.73
2017-08-25T10:06:16.251Z,3.57
2017-08-25T10:16:30.553Z,3.40
2017-08-25T10:18:59.302Z,3.80
2017-08-25T10:26:34.576Z,4.00
2017-08-25T10:29:03.235Z,4.00
2017-08-25T10:37:05.703Z,3.30
2017-08-25T10:39:46.956Z,3.23
2017-08-25T11:09:25.566Z,3.43
2017-08-25T11:14:53.029Z,3.70
2017-08-25T11:27:52.855Z,4.10
2017-08-25T11:30:21.341Z,4.50
2017-08-25T11:32:50.580Z,3.83
2017-08-25T11:37:51.783Z,3.13
2017-08-25T11:40:21.153Z,4.03
2017-08-25T11:42:49.689Z,3.73
2017-08-25T11:45:17.996Z,3.43
2017-08-25T11:47:46.695Z,4.20
2017-08-25T11:50:15.184Z,3.50
2017-08-25T11:52:43.531Z,4.20
2017-08-25T11:57:46.987Z,3.47
2017-08-25T12:00:16.107Z,4.90
2017-08-25T12:08:59.121Z,3.10
2017-08-25T12:11:28.250Z,3.60
2017-08-25T12:13:57.983Z,2.80
2017-08-25T12:16:27.397Z,3.03
2017-08-25T12:18:56.037Z,3.83
2017-08-25T12:21:24.734Z,3.07
2017-08-25T12:26:26.427Z,3.77
2017-08-25T12:28:55.598Z,3.20
2017-08-25T12:31:24.267Z,3.50
2017-08-25T12:33:53.005Z,3.13
2017-08-25T12:36:21.464Z,3.40
2017-08-25T12:38:50.201Z,2.43
2017-08-25T12:41:18.853Z,3.47
2017-08-25T12:43:49.478Z,3.53
2017-08-25T12:46:18.101Z,2.80
2017-08-25T12:48:46.722Z,3.60
2017-08-25T12:51:15.692Z,3.03
2017-08-25T12:53:44.532Z,2.83
2017-08-25T12:56:13.137Z,3.73
2017-08-25T12:58:42.228Z,3.80
2017-08-25T13:01:11.133Z,4.90
2017-08-25T13:03:39.503Z,2.77
2017-08-25T13:06:07.812Z,3.00
2017-08-25T13:08:36.188Z,6.20
2017-08-25T13:11:04.867Z,3.73
2017-08-25T13:13:33.338Z,4.20
2017-08-25T13:16:02.112Z,2.30
2017-08-25T13:18:30.408Z,3.20
2017-08-25T13:20:58.791Z,3.60
2017-08-25T13:23:27.304Z,3.03
2017-08-25T13:25:55.616Z,2.90
2017-08-25T13:28:24.024Z,3.43
2017-08-25T13:30:52.337Z,3.53
2017-08-25T13:33:20.700Z,3.57
2017-08-25T13:35:51.107Z,3.00
2017-08-25T13:38:19.417Z,3.13
2017-08-25T13:40:47.777Z,2.50
2017-08-25T13:43:16.161Z,2.90
2017-08-25T13:45:44.525Z,3.80
2017-08-25T13:48:12.884Z,2.90
2017-08-25T13:50:41.556Z,3.43
2017-08-25T13:53:09.929Z,3.30
2017-08-25T13:55:38.436Z,3.67
2017-08-25T13:58:06.816Z,2.80
2017-08-25T14:00:35.301Z,3.80
2017-08-25T14:03:03.936Z,2.43
2017-08-25T14:05:32.361Z,3.47
2017-08-25T14:08:00.857Z,4.00
2017-08-25T14:10:29.316Z,3.20
2017-08-25T14:12:58.067Z,3.70
2017-08-25T14:15:26.486Z,2.83
2017-08-25T14:17:55.271Z,3.50
2017-08-25T14:20:23.637Z,3.50
2017-08-25T14:22:52.135Z,3.60
2017-08-25T14:25:21.088Z,3.23
2017-08-25T14:27:49.636Z,3.87
2017-08-25T14:30:18.093Z,3.70
2017-08-25T14:32:46.661Z,3.40
2017-08-25T14:35:15.161Z,3.00
2017-08-25T14:37:43.836Z,2.80
2017-08-25T14:40:12.173Z,3.03
2017-08-25T14:42:41.590Z,3.43
2017-08-25T14:45:09.899Z,3.80
2017-08-25T14:47:38.300Z,5.53
2017-08-25T14:50:07.134Z,3.33
2017-08-25T14:52:35.679Z,2.83
2017-08-25T14:55:03.984Z,3.67
2017-08-25T14:57:32.580Z,3.33
2017-08-25T15:00:02.098Z,3.40
2017-08-25T15:02:30.839Z,3.30
2017-08-25T15:05:00.855Z,3.60
2017-08-25T15:07:29.139Z,3.07
2017-08-25T15:09:57.865Z,3.57
2017-08-25T15:12:26.663Z,3.70
2017-08-25T15:14:54.999Z,3.77
2017-08-25T15:17:23.380Z,3.83
2017-08-25T15:19:51.843Z,3.90
2017-08-25T15:22:20.388Z,3.30
2017-08-25T15:24:49.264Z,3.90
2017-08-25T15:27:17.659Z,3.83
2017-08-25T15:29:46.210Z,3.23
2017-08-25T15:32:14.577Z,3.13
2017-08-25T15:34:42.948Z,3.43
2017-08-25T15:37:11.763Z,4.30
2017-08-25T15:39:41.267Z,3.70
2017-08-25T15:42:09.689Z,3.43
2017-08-25T15:44:38.052Z,3.77
2017-08-25T15:47:06.586Z,4.47
2017-08-25T15:49:34.980Z,3.30
2017-08-25T15:52:03.563Z,2.97
2017-08-25T15:54:32.092Z,4.10
2017-08-25T15:57:00.861Z,3.03
2017-08-25T15:59:29.845Z,3.53
2017-08-25T16:01:58.285Z,3.90
2017-08-25T16:04:27.328Z,3.40
2017-08-25T16:06:55.817Z,4.40
2017-08-25T16:09:24.213Z,4.23
2017-08-25T16:11:53.769Z,4.30
2017-08-25T16:14:22.602Z,4.03
2017-08-25T16:16:51.158Z,4.10
2017-08-25T16:19:20.005Z,4.93
2017-08-25T16:21:48.639Z,4.70
2017-08-25T16:24:17.326Z,3.53
2017-08-25T16:26:46.012Z,3.97
2017-08-25T16:37:00.049Z,3.77
2017-08-25T16:42:19.730Z,4.20
2017-08-25T16:44:48.257Z,4.67
2017-08-25T16:49:53.638Z,5.37
2017-08-25T16:52:23.532Z,5.80
2017-08-25T16:54:52.414Z,4.33
2017-08-25T16:57:20.900Z,3.20
2017-08-25T16:59:49.745Z,3.80
2017-08-25T17:02:19.061Z,4.37
2017-08-25T17:04:47.551Z,4.30
2017-08-25T17:07:16.517Z,5.70
2017-08-25T17:09:46.719Z,5.10
2017-08-25T17:12:15.275Z,4.97
2017-08-25T17:14:43.890Z,3.30
2017-08-25T17:17:12.507Z,3.73
2017-08-25T17:22:14.205Z,3.77
2017-08-25T17:24:43.462Z,3.37
2017-08-25T17:27:12.333Z,3.40
2017-08-25T17:29:41.342Z,4.27
2017-08-25T17:32:09.914Z,3.77
2017-08-25T17:34:38.546Z,4.67
2017-08-25T17:37:07.001Z,4.10
2017-08-25T17:39:35.557Z,4.83
2017-08-25T17:42:04.154Z,6.17
2017-08-25T17:44:33.295Z,4.90
2017-08-25T17:47:01.822Z,5.03
2017-08-25T17:49:30.695Z,5.00
2017-08-25T17:51:59.087Z,4.97
2017-08-25T17:54:27.527Z,5.43
2017-08-25T17:56:56.035Z,4.73
2017-08-25T17:59:24.881Z,4.90
2017-08-25T18:01:53.503Z,5.03
2017-08-25T18:04:21.867Z,6.60
2017-08-25T18:06:50.271Z,6.27
2017-08-25T18:09:19.654Z,5.43
2017-08-25T18:11:48.234Z,5.43
2017-08-25T18:14:16.730Z,5.30
2017-08-25T18:16:45.342Z,5.23
2017-08-25T18:19:13.947Z,5.53
2017-08-25T18:21:42.840Z,7.23
2017-08-25T18:24:11.510Z,7.00
2017-08-25T18:26:40.320Z,6.10
2017-08-25T18:29:08.816Z,6.90
2017-08-25T18:31:37.196Z,7.60
2017-08-25T18:34:05.711Z,7.77
2017-08-25T18:36:34.091Z,6.70
2017-08-25T18:39:02.861Z,6.57
2017-08-25T18:41:31.285Z,7.23
2017-08-25T18:44:00.269Z,7.80
2017-08-25T18:46:28.735Z,7.90
2017-08-25T18:48:57.296Z,6.67
2017-08-25T18:51:26.127Z,7.33
2017-08-25T18:53:54.550Z,9.23
2017-08-25T18:56:23.548Z,7.07
2017-08-25T18:58:52.137Z,7.90
2017-08-25T19:01:20.853Z,6.03
2017-08-25T19:03:49.451Z,6.87
2017-08-25T19:06:18.073Z,6.73
2017-08-25T19:08:46.984Z,6.80
2017-08-25T19:11:15.620Z,6.97
2017-08-25T19:13:44.597Z,8.00
2017-08-25T19:16:13.289Z,7.93
2017-08-25T19:18:41.757Z,7.20
2017-08-25T19:21:10.731Z,6.40
2017-08-25T19:23:39.277Z,7.40
2017-08-25T19:26:07.717Z,8.43
2017-08-25T19:28:36.214Z,7.27
2017-08-25T19:31:06.544Z,7.70
2017-08-25T19:33:35.097Z,7.73
2017-08-25T19:36:03.661Z,8.00
2017-08-25T19:38:32.161Z,8.43
2017-08-25T19:41:00.788Z,7.73
2017-08-25T19:43:29.332Z,7.60
2017-08-25T19:45:57.785Z,7.87
2017-08-25T19:48:26.281Z,7.07
2017-08-25T19:50:55.034Z,7.77
2017-08-25T19:53:23.553Z,7.73
2017-08-25T19:55:52.130Z,7.70
2017-08-25T19:58:20.788Z,6.80
2017-08-25T20:00:49.376Z,7.43
2017-08-25T20:03:18.358Z,7.77
2017-08-25T20:05:47.598Z,7.53
2017-08-25T20:08:16.161Z,7.17
2017-08-25T20:10:45.197Z,6.87
2017-08-25T20:13:13.702Z,7.30
2017-08-25T20:15:42.128Z,7.27
2017-08-25T20:18:10.867Z,6.87
2017-08-25T20:20:40.004Z,7.93
2017-08-25T20:23:08.602Z,7.80
2017-08-25T20:25:37.412Z,6.73
2017-08-25T20:28:05.778Z,6.13
2017-08-25T20:30:34.297Z,6.70
2017-08-25T20:33:02.653Z,8.10
2017-08-25T20:35:31.157Z,7.70
2017-08-25T20:37:59.535Z,6.73
2017-08-25T20:40:27.860Z,7.07
2017-08-25T20:42:56.229Z,7.10
2017-08-25T20:45:24.755Z,7.53
2017-08-25T20:47:53.295Z,7.80
2017-08-25T20:50:21.805Z,7.17
2017-08-25T20:52:50.364Z,7.33
2017-08-25T20:55:19.414Z,6.70
2017-08-25T20:57:47.872Z,8.37
2017-08-25T21:00:16.259Z,6.80
2017-08-25T21:02:44.912Z,8.20
2017-08-25T21:05:13.596Z,8.47
2017-08-25T21:07:42.270Z,7.63
2017-08-25T21:10:11.013Z,7.60
2017-08-25T21:12:39.618Z,7.30
2017-08-25T21:15:08.366Z,7.50
2017-08-25T21:17:36.887Z,7.50
2017-08-25T21:20:05.600Z,8.37
2017-08-25T21:22:39.351Z,7.33
2017-08-25T21:25:07.868Z,8.50
2017-08-25T21:27:36.277Z,8.30
2017-08-25T21:30:07.798Z,8.13
2017-08-25T21:32:36.475Z,8.40
2017-08-25T21:35:05.106Z,7.87
2017-08-25T21:37:33.778Z,7.73
2017-08-25T21:40:02.474Z,8.03
2017-08-25T21:42:32.083Z,11.90
2017-08-25T21:45:00.595Z,7.67
2017-08-25T21:47:29.737Z,8.87
2017-08-25T21:49:58.657Z,8.10
2017-08-25T21:52:27.846Z,7.90
2017-08-25T21:54:58.346Z,6.63
2017-08-25T21:57:27.020Z,7.27
2017-08-25T21:59:55.410Z,6.90
2017-08-25T22:02:23.911Z,7.23
2017-08-25T22:04:52.437Z,7.90
2017-08-25T22:07:21.146Z,8.40
2017-08-25T22:09:49.849Z,9.50
2017-08-25T22:12:18.633Z,9.00
2017-08-25T22:14:47.205Z,7.77
2017-08-25T22:17:15.720Z,10.07
2017-08-25T22:19:44.334Z,8.60
2017-08-25T22:22:12.765Z,8.50
2017-08-25T22:24:41.265Z,8.77
2017-08-25T22:27:09.903Z,9.03
2017-08-25T22:29:38.818Z,8.90
2017-08-25T22:32:07.495Z,8.63
2017-08-25T22:34:36.008Z,8.90
2017-08-25T22:37:04.633Z,8.77
2017-08-25T22:39:33.162Z,8.90
2017-08-25T22:42:01.568Z,9.80
2017-08-25T22:44:30.018Z,10.70
2017-08-25T22:46:58.545Z,10.50
2017-08-25T22:49:27.033Z,10.13
2017-08-25T22:51:55.544Z,10.90
2017-08-25T22:54:24.123Z,10.73
2017-08-25T22:56:52.856Z,11.13
2017-08-25T22:59:21.304Z,11.70
2017-08-25T23:01:49.698Z,11.30
2017-08-25T23:04:18.558Z,11.60
2017-08-25T23:06:47.045Z,10.40
2017-08-25T23:09:16.144Z,10.20
2017-08-25T23:11:44.566Z,9.90
2017-08-25T23:14:13.191Z,10.33
2017-08-25T23:16:46.339Z,11.37
2017-08-25T23:19:14.836Z,11.03
2017-08-25T23:21:43.693Z,10.53
2017-08-25T23:24:12.872Z,10.87
2017-08-25T23:26:41.375Z,11.37
2017-08-25T23:29:09.767Z,10.20
2017-08-25T23:31:38.406Z,10.53
2017-08-25T23:34:06.877Z,9.30
2017-08-25T23:36:35.237Z,9.77
2017-08-25T23:39:03.718Z,10.73
2017-08-25T23:41:32.122Z,11.97
2017-08-25T23:44:00.601Z,9.80
2017-08-25T23:46:29.129Z,11.00
2017-08-25T23:48:57.730Z,8.77
2017-08-25T23:51:26.228Z,10.50
2017-08-25T23:53:54.706Z,11.07
2017-08-25T23:56:24.314Z,10.43
2017-08-25T23:58:53.221Z,9.30
